sensor_id;sensor_type;location;lat;lon;timestamp;P1;durP1;ratioP1;P2;durP2;ratioP2
9364;SDS011;4722;49.340;9.800;2023-07-28T00:00:11;1.73;;;0.80;;
9364;SDS011;4722;49.340;9.800;2023-07-28T00:02:37;3.40;;;1.25;;
9364;SDS011;4722;49.340;9.800;2023-07-28T00:05:02;2.97;;;1.40;;
9364;SDS011;4722;49.340;9.800;2023-07-28T00:07:28;3.05;;;1.55;;
9364;SDS011;4722;49.340;9.800;2023-07-28T00:09:54;2.55;;;1.23;;
9364;SDS011;4722;49.340;9.800;2023-07-28T00:12:20;2.97;;;1.17;;
9364;SDS011;4722;49.340;9.800;2023-07-28T00:14:47;3.53;;;1.17;;
9364;SDS011;4722;49.340;9.800;2023-07-28T00:17:13;3.35;;;1.15;;
9364;SDS011;4722;49.340;9.800;2023-07-28T00:19:39;5.15;;;1.20;;
9364;SDS011;4722;49.340;9.800;2023-07-28T00:22:05;3.45;;;1.60;;
9364;SDS011;4722;49.340;9.800;2023-07-28T00:24:30;4.72;;;1.30;;
9364;SDS011;4722;49.340;9.800;2023-07-28T00:26:56;2.42;;;1.42;;
9364;SDS011;4722;49.340;9.800;2023-07-28T00:29:22;6.03;;;1.48;;
9364;SDS011;4722;49.340;9.800;2023-07-28T00:31:48;4.22;;;1.20;;
9364;SDS011;4722;49.340;9.800;2023-07-28T00:34:14;2.85;;;1.40;;
9364;SDS011;4722;49.340;9.800;2023-07-28T00:36:40;3.05;;;1.25;;
9364;SDS011;4722;49.340;9.800;2023-07-28T00:39:06;3.35;;;0.90;;
9364;SDS011;4722;49.340;9.800;2023-07-28T00:41:32;2.67;;;1.40;;
9364;SDS011;4722;49.340;9.800;2023-07-28T00:43:58;3.92;;;1.60;;
9364;SDS011;4722;49.340;9.800;2023-07-28T00:46:24;3.22;;;1.63;;
9364;SDS011;4722;49.340;9.800;2023-07-28T00:48:50;3.20;;;1.25;;
9364;SDS011;4722;49.340;9.800;2023-07-28T00:51:16;2.33;;;1.08;;
9364;SDS011;4722;49.340;9.800;2023-07-28T00:53:42;3.22;;;1.02;;
9364;SDS011;4722;49.340;9.800;2023-07-28T00:56:08;2.25;;;0.95;;
9364;SDS011;4722;49.340;9.800;2023-07-28T00:58:36;2.60;;;1.10;;
9364;SDS011;4722;49.340;9.800;2023-07-28T01:01:02;2.25;;;1.00;;
9364;SDS011;4722;49.340;9.800;2023-07-28T01:03:28;2.63;;;1.42;;
9364;SDS011;4722;49.340;9.800;2023-07-28T01:06:10;6.55;;;1.73;;
9364;SDS011;4722;49.340;9.800;2023-07-28T01:11:02;3.55;;;1.30;;
9364;SDS011;4722;49.340;9.800;2023-07-28T01:19:31;3.05;;;0.90;;
9364;SDS011;4722;49.340;9.800;2023-07-28T01:22:03;2.28;;;1.15;;
9364;SDS011;4722;49.340;9.800;2023-07-28T01:27:53;2.22;;;1.05;;
9364;SDS011;4722;49.340;9.800;2023-07-28T01:30:21;3.33;;;1.15;;
9364;SDS011;4722;49.340;9.800;2023-07-28T01:32:50;1.80;;;0.90;;
9364;SDS011;4722;49.340;9.800;2023-07-28T01:35:16;2.63;;;1.27;;
9364;SDS011;4722;49.340;9.800;2023-07-28T01:37:42;2.60;;;1.20;;
9364;SDS011;4722;49.340;9.800;2023-07-28T01:40:08;5.22;;;1.30;;
9364;SDS011;4722;49.340;9.800;2023-07-28T01:42:34;2.33;;;1.15;;
9364;SDS011;4722;49.340;9.800;2023-07-28T01:45:00;3.42;;;1.30;;
9364;SDS011;4722;49.340;9.800;2023-07-28T01:47:26;3.22;;;1.27;;
9364;SDS011;4722;49.340;9.800;2023-07-28T01:49:52;6.40;;;1.30;;
9364;SDS011;4722;49.340;9.800;2023-07-28T01:52:18;2.20;;;1.15;;
9364;SDS011;4722;49.340;9.800;2023-07-28T01:54:44;2.78;;;1.52;;
9364;SDS011;4722;49.340;9.800;2023-07-28T01:57:10;7.70;;;1.58;;
9364;SDS011;4722;49.340;9.800;2023-07-28T01:59:36;4.47;;;1.38;;
9364;SDS011;4722;49.340;9.800;2023-07-28T02:02:02;2.80;;;1.20;;
9364;SDS011;4722;49.340;9.800;2023-07-28T02:04:28;2.88;;;1.00;;
9364;SDS011;4722;49.340;9.800;2023-07-28T02:06:54;1.98;;;1.02;;
9364;SDS011;4722;49.340;9.800;2023-07-28T02:09:20;2.83;;;1.45;;
9364;SDS011;4722;49.340;9.800;2023-07-28T02:11:45;5.07;;;1.50;;
9364;SDS011;4722;49.340;9.800;2023-07-28T02:14:11;2.38;;;1.08;;
9364;SDS011;4722;49.340;9.800;2023-07-28T02:16:37;3.20;;;1.55;;
9364;SDS011;4722;49.340;9.800;2023-07-28T02:19:03;2.63;;;1.73;;
9364;SDS011;4722;49.340;9.800;2023-07-28T02:21:30;3.15;;;1.25;;
9364;SDS011;4722;49.340;9.800;2023-07-28T02:23:56;4.60;;;1.73;;
9364;SDS011;4722;49.340;9.800;2023-07-28T02:26:23;3.88;;;1.42;;
9364;SDS011;4722;49.340;9.800;2023-07-28T02:28:49;3.53;;;1.00;;
9364;SDS011;4722;49.340;9.800;2023-07-28T02:31:15;3.10;;;1.17;;
9364;SDS011;4722;49.340;9.800;2023-07-28T02:33:41;4.95;;;1.42;;
9364;SDS011;4722;49.340;9.800;2023-07-28T02:36:07;2.05;;;1.10;;
9364;SDS011;4722;49.340;9.800;2023-07-28T02:38:33;6.38;;;1.85;;
9364;SDS011;4722;49.340;9.800;2023-07-28T02:40:59;4.20;;;1.25;;
9364;SDS011;4722;49.340;9.800;2023-07-28T02:43:25;3.55;;;1.33;;
9364;SDS011;4722;49.340;9.800;2023-07-28T02:45:54;2.90;;;1.02;;
9364;SDS011;4722;49.340;9.800;2023-07-28T02:48:21;3.40;;;0.82;;
9364;SDS011;4722;49.340;9.800;2023-07-28T02:50:48;4.70;;;1.70;;
9364;SDS011;4722;49.340;9.800;2023-07-28T02:53:16;2.65;;;1.50;;
9364;SDS011;4722;49.340;9.800;2023-07-28T02:55:43;4.05;;;1.52;;
9364;SDS011;4722;49.340;9.800;2023-07-28T02:58:09;2.08;;;1.10;;
9364;SDS011;4722;49.340;9.800;2023-07-28T03:00:38;2.42;;;1.17;;
9364;SDS011;4722;49.340;9.800;2023-07-28T03:03:05;2.22;;;1.25;;
9364;SDS011;4722;49.340;9.800;2023-07-28T03:05:31;2.78;;;1.20;;
9364;SDS011;4722;49.340;9.800;2023-07-28T03:07:57;10.80;;;1.92;;
9364;SDS011;4722;49.340;9.800;2023-07-28T03:10:23;2.78;;;1.27;;
9364;SDS011;4722;49.340;9.800;2023-07-28T03:12:49;2.88;;;1.60;;
9364;SDS011;4722;49.340;9.800;2023-07-28T03:15:15;3.10;;;1.60;;
9364;SDS011;4722;49.340;9.800;2023-07-28T03:17:41;3.25;;;1.70;;
9364;SDS011;4722;49.340;9.800;2023-07-28T03:20:07;3.47;;;1.40;;
9364;SDS011;4722;49.340;9.800;2023-07-28T03:22:33;4.10;;;1.52;;
9364;SDS011;4722;49.340;9.800;2023-07-28T03:24:59;3.33;;;1.35;;
9364;SDS011;4722;49.340;9.800;2023-07-28T03:27:25;7.88;;;1.65;;
9364;SDS011;4722;49.340;9.800;2023-07-28T03:29:51;5.35;;;1.65;;
9364;SDS011;4722;49.340;9.800;2023-07-28T03:32:17;4.60;;;1.80;;
9364;SDS011;4722;49.340;9.800;2023-07-28T03:34:43;3.85;;;1.50;;
9364;SDS011;4722;49.340;9.800;2023-07-28T03:37:09;2.40;;;1.45;;
9364;SDS011;4722;49.340;9.800;2023-07-28T03:39:35;7.50;;;1.88;;
9364;SDS011;4722;49.340;9.800;2023-07-28T03:42:01;3.10;;;1.50;;
9364;SDS011;4722;49.340;9.800;2023-07-28T03:44:27;3.95;;;1.77;;
9364;SDS011;4722;49.340;9.800;2023-07-28T03:46:53;4.15;;;1.63;;
9364;SDS011;4722;49.340;9.800;2023-07-28T03:49:19;2.47;;;1.35;;
9364;SDS011;4722;49.340;9.800;2023-07-28T03:51:44;3.05;;;1.33;;
9364;SDS011;4722;49.340;9.800;2023-07-28T03:54:10;6.22;;;1.55;;
9364;SDS011;4722;49.340;9.800;2023-07-28T03:56:36;2.85;;;1.42;;
9364;SDS011;4722;49.340;9.800;2023-07-28T03:59:02;3.45;;;1.25;;
9364;SDS011;4722;49.340;9.800;2023-07-28T04:01:28;2.40;;;1.13;;
9364;SDS011;4722;49.340;9.800;2023-07-28T04:03:54;4.15;;;2.10;;
9364;SDS011;4722;49.340;9.800;2023-07-28T04:06:34;2.08;;;1.02;;
9364;SDS011;4722;49.340;9.800;2023-07-28T04:09:08;4.15;;;1.58;;
9364;SDS011;4722;49.340;9.800;2023-07-28T04:11:34;3.65;;;1.48;;
9364;SDS011;4722;49.340;9.800;2023-07-28T04:13:59;4.25;;;1.55;;
9364;SDS011;4722;49.340;9.800;2023-07-28T04:16:25;2.67;;;1.17;;
9364;SDS011;4722;49.340;9.800;2023-07-28T04:18:51;4.80;;;2.05;;
9364;SDS011;4722;49.340;9.800;2023-07-28T04:21:17;2.22;;;1.20;;
9364;SDS011;4722;49.340;9.800;2023-07-28T04:23:43;7.43;;;1.40;;
9364;SDS011;4722;49.340;9.800;2023-07-28T04:26:09;10.63;;;1.80;;
9364;SDS011;4722;49.340;9.800;2023-07-28T04:28:35;3.55;;;1.52;;
9364;SDS011;4722;49.340;9.800;2023-07-28T04:31:01;6.35;;;1.70;;
9364;SDS011;4722;49.340;9.800;2023-07-28T04:33:27;2.35;;;1.52;;
9364;SDS011;4722;49.340;9.800;2023-07-28T04:35:53;3.28;;;1.38;;
9364;SDS011;4722;49.340;9.800;2023-07-28T04:38:19;2.97;;;1.45;;
9364;SDS011;4722;49.340;9.800;2023-07-28T04:40:44;5.55;;;1.90;;
9364;SDS011;4722;49.340;9.800;2023-07-28T04:43:10;3.03;;;1.60;;
9364;SDS011;4722;49.340;9.800;2023-07-28T04:45:36;3.28;;;1.10;;
9364;SDS011;4722;49.340;9.800;2023-07-28T04:48:02;3.40;;;1.75;;
9364;SDS011;4722;49.340;9.800;2023-07-28T04:50:28;5.78;;;1.48;;
9364;SDS011;4722;49.340;9.800;2023-07-28T04:52:54;2.13;;;1.35;;
9364;SDS011;4722;49.340;9.800;2023-07-28T04:55:20;5.30;;;1.75;;
9364;SDS011;4722;49.340;9.800;2023-07-28T04:57:46;4.20;;;1.63;;
9364;SDS011;4722;49.340;9.800;2023-07-28T05:00:12;4.32;;;2.05;;
9364;SDS011;4722;49.340;9.800;2023-07-28T05:02:38;2.95;;;1.40;;
9364;SDS011;4722;49.340;9.800;2023-07-28T05:05:04;4.32;;;2.10;;
9364;SDS011;4722;49.340;9.800;2023-07-28T05:07:30;3.13;;;1.25;;
9364;SDS011;4722;49.340;9.800;2023-07-28T05:09:56;4.03;;;1.85;;
9364;SDS011;4722;49.340;9.800;2023-07-28T05:12:22;2.60;;;1.20;;
9364;SDS011;4722;49.340;9.800;2023-07-28T05:14:48;3.00;;;1.50;;
9364;SDS011;4722;49.340;9.800;2023-07-28T05:17:14;3.80;;;1.33;;
9364;SDS011;4722;49.340;9.800;2023-07-28T05:19:40;3.25;;;1.40;;
9364;SDS011;4722;49.340;9.800;2023-07-28T05:22:06;4.88;;;1.77;;
9364;SDS011;4722;49.340;9.800;2023-07-28T05:24:33;3.58;;;1.55;;
9364;SDS011;4722;49.340;9.800;2023-07-28T05:26:58;3.92;;;1.85;;
9364;SDS011;4722;49.340;9.800;2023-07-28T05:29:24;5.80;;;2.50;;
9364;SDS011;4722;49.340;9.800;2023-07-28T05:31:50;2.33;;;1.30;;
9364;SDS011;4722;49.340;9.800;2023-07-28T05:34:17;3.17;;;1.73;;
9364;SDS011;4722;49.340;9.800;2023-07-28T05:36:43;3.58;;;1.63;;
9364;SDS011;4722;49.340;9.800;2023-07-28T05:39:09;2.17;;;1.50;;
9364;SDS011;4722;49.340;9.800;2023-07-28T05:41:36;2.88;;;1.70;;
9364;SDS011;4722;49.340;9.800;2023-07-28T05:44:02;4.50;;;2.40;;
9364;SDS011;4722;49.340;9.800;2023-07-28T05:46:28;3.60;;;1.90;;
9364;SDS011;4722;49.340;9.800;2023-07-28T05:48:57;3.38;;;1.48;;
9364;SDS011;4722;49.340;9.800;2023-07-28T05:51:23;4.38;;;2.00;;
9364;SDS011;4722;49.340;9.800;2023-07-28T05:53:49;3.60;;;1.95;;
9364;SDS011;4722;49.340;9.800;2023-07-28T05:56:15;3.92;;;1.90;;
9364;SDS011;4722;49.340;9.800;2023-07-28T05:58:42;4.32;;;1.90;;
9364;SDS011;4722;49.340;9.800;2023-07-28T06:01:09;4.55;;;1.92;;
9364;SDS011;4722;49.340;9.800;2023-07-28T06:03:35;4.25;;;1.30;;
9364;SDS011;4722;49.340;9.800;2023-07-28T06:06:01;3.03;;;1.67;;
9364;SDS011;4722;49.340;9.800;2023-07-28T06:08:27;3.80;;;1.63;;
9364;SDS011;4722;49.340;9.800;2023-07-28T06:10:53;3.53;;;1.58;;
9364;SDS011;4722;49.340;9.800;2023-07-28T06:13:19;6.68;;;1.90;;
9364;SDS011;4722;49.340;9.800;2023-07-28T06:15:46;5.55;;;1.48;;
9364;SDS011;4722;49.340;9.800;2023-07-28T06:18:12;3.13;;;1.60;;
9364;SDS011;4722;49.340;9.800;2023-07-28T06:20:41;3.38;;;1.35;;
9364;SDS011;4722;49.340;9.800;2023-07-28T06:23:07;4.65;;;1.60;;
9364;SDS011;4722;49.340;9.800;2023-07-28T06:25:33;2.53;;;1.27;;
9364;SDS011;4722;49.340;9.800;2023-07-28T06:27:59;3.30;;;1.02;;
9364;SDS011;4722;49.340;9.800;2023-07-28T06:30:25;2.65;;;1.00;;
9364;SDS011;4722;49.340;9.800;2023-07-28T06:32:51;2.10;;;1.00;;
9364;SDS011;4722;49.340;9.800;2023-07-28T06:35:17;2.42;;;1.27;;
9364;SDS011;4722;49.340;9.800;2023-07-28T06:37:43;2.50;;;1.35;;
9364;SDS011;4722;49.340;9.800;2023-07-28T06:40:09;2.40;;;1.50;;
9364;SDS011;4722;49.340;9.800;2023-07-28T06:42:35;2.00;;;1.00;;
9364;SDS011;4722;49.340;9.800;2023-07-28T06:45:02;2.83;;;1.27;;
9364;SDS011;4722;49.340;9.800;2023-07-28T06:47:29;2.10;;;1.15;;
9364;SDS011;4722;49.340;9.800;2023-07-28T06:49:55;5.05;;;1.20;;
9364;SDS011;4722;49.340;9.800;2023-07-28T06:52:21;3.20;;;1.23;;
9364;SDS011;4722;49.340;9.800;2023-07-28T06:54:47;2.00;;;0.70;;
9364;SDS011;4722;49.340;9.800;2023-07-28T06:57:14;1.83;;;0.73;;
9364;SDS011;4722;49.340;9.800;2023-07-28T06:59:40;2.63;;;1.25;;
9364;SDS011;4722;49.340;9.800;2023-07-28T07:02:07;2.22;;;0.88;;
9364;SDS011;4722;49.340;9.800;2023-07-28T07:04:34;2.38;;;0.70;;
9364;SDS011;4722;49.340;9.800;2023-07-28T07:07:00;1.23;;;0.57;;
9364;SDS011;4722;49.340;9.800;2023-07-28T07:09:27;1.20;;;0.52;;
9364;SDS011;4722;49.340;9.800;2023-07-28T07:11:53;1.73;;;0.75;;
9364;SDS011;4722;49.340;9.800;2023-07-28T07:14:19;1.45;;;0.63;;
9364;SDS011;4722;49.340;9.800;2023-07-28T07:16:45;1.88;;;0.65;;
9364;SDS011;4722;49.340;9.800;2023-07-28T07:19:11;4.05;;;0.88;;
9364;SDS011;4722;49.340;9.800;2023-07-28T07:21:38;5.13;;;2.70;;
9364;SDS011;4722;49.340;9.800;2023-07-28T07:24:04;3.90;;;1.77;;
9364;SDS011;4722;49.340;9.800;2023-07-28T07:26:30;1.35;;;0.73;;
9364;SDS011;4722;49.340;9.800;2023-07-28T07:28:59;0.90;;;0.70;;
9364;SDS011;4722;49.340;9.800;2023-07-28T07:31:25;1.80;;;0.70;;
9364;SDS011;4722;49.340;9.800;2023-07-28T07:33:51;2.50;;;0.90;;
9364;SDS011;4722;49.340;9.800;2023-07-28T07:36:18;1.80;;;0.77;;
9364;SDS011;4722;49.340;9.800;2023-07-28T07:38:44;2.42;;;1.00;;
9364;SDS011;4722;49.340;9.800;2023-07-28T07:41:11;1.75;;;0.68;;
9364;SDS011;4722;49.340;9.800;2023-07-28T07:43:38;1.90;;;0.77;;
9364;SDS011;4722;49.340;9.800;2023-07-28T07:46:03;2.00;;;0.68;;
9364;SDS011;4722;49.340;9.800;2023-07-28T07:48:30;2.17;;;1.00;;
9364;SDS011;4722;49.340;9.800;2023-07-28T07:50:56;1.10;;;0.60;;
9364;SDS011;4722;49.340;9.800;2023-07-28T07:53:23;1.42;;;0.70;;
9364;SDS011;4722;49.340;9.800;2023-07-28T07:55:51;1.30;;;0.55;;
9364;SDS011;4722;49.340;9.800;2023-07-28T07:58:16;1.38;;;0.68;;
9364;SDS011;4722;49.340;9.800;2023-07-28T08:00:42;2.50;;;0.70;;
9364;SDS011;4722;49.340;9.800;2023-07-28T08:03:09;1.10;;;0.60;;
9364;SDS011;4722;49.340;9.800;2023-07-28T08:05:35;0.60;;;0.32;;
9364;SDS011;4722;49.340;9.800;2023-07-28T08:08:01;1.52;;;0.80;;
9364;SDS011;4722;49.340;9.800;2023-07-28T08:10:27;2.65;;;0.70;;
9364;SDS011;4722;49.340;9.800;2023-07-28T08:12:53;1.17;;;0.40;;
9364;SDS011;4722;49.340;9.800;2023-07-28T08:15:19;1.33;;;0.60;;
9364;SDS011;4722;49.340;9.800;2023-07-28T08:17:45;1.48;;;0.63;;
9364;SDS011;4722;49.340;9.800;2023-07-28T08:20:11;2.33;;;0.40;;
9364;SDS011;4722;49.340;9.800;2023-07-28T08:22:37;0.60;;;0.40;;
9364;SDS011;4722;49.340;9.800;2023-07-28T08:28:25;1.88;;;0.75;;
9364;SDS011;4722;49.340;9.800;2023-07-28T08:30:55;0.95;;;0.32;;
9364;SDS011;4722;49.340;9.800;2023-07-28T08:33:21;0.52;;;0.30;;
9364;SDS011;4722;49.340;9.800;2023-07-28T08:35:47;1.08;;;0.45;;
9364;SDS011;4722;49.340;9.800;2023-07-28T08:38:13;0.85;;;0.30;;
9364;SDS011;4722;49.340;9.800;2023-07-28T08:40:39;0.82;;;0.40;;
9364;SDS011;4722;49.340;9.800;2023-07-28T08:43:05;0.63;;;0.22;;
9364;SDS011;4722;49.340;9.800;2023-07-28T08:45:31;1.08;;;0.40;;
9364;SDS011;4722;49.340;9.800;2023-07-28T08:47:57;0.98;;;0.40;;
9364;SDS011;4722;49.340;9.800;2023-07-28T08:50:23;2.28;;;0.40;;
9364;SDS011;4722;49.340;9.800;2023-07-28T08:52:49;0.70;;;0.22;;
9364;SDS011;4722;49.340;9.800;2023-07-28T08:55:16;0.55;;;0.28;;
9364;SDS011;4722;49.340;9.800;2023-07-28T08:57:42;1.02;;;0.43;;
9364;SDS011;4722;49.340;9.800;2023-07-28T09:00:11;0.90;;;0.35;;
9364;SDS011;4722;49.340;9.800;2023-07-28T09:02:43;0.90;;;0.40;;
9364;SDS011;4722;49.340;9.800;2023-07-28T09:05:19;0.88;;;0.50;;
9364;SDS011;4722;49.340;9.800;2023-07-28T09:07:45;0.60;;;0.30;;
9364;SDS011;4722;49.340;9.800;2023-07-28T09:10:12;0.73;;;0.35;;
9364;SDS011;4722;49.340;9.800;2023-07-28T09:12:45;4.03;;;0.25;;
9364;SDS011;4722;49.340;9.800;2023-07-28T09:15:12;0.32;;;0.20;;
9364;SDS011;4722;49.340;9.800;2023-07-28T09:17:44;0.47;;;0.30;;
9364;SDS011;4722;49.340;9.800;2023-07-28T09:20:12;0.77;;;0.40;;
9364;SDS011;4722;49.340;9.800;2023-07-28T09:22:39;1.63;;;0.40;;
9364;SDS011;4722;49.340;9.800;2023-07-28T09:25:12;1.55;;;0.47;;
9364;SDS011;4722;49.340;9.800;2023-07-28T09:27:39;1.70;;;0.63;;
9364;SDS011;4722;49.340;9.800;2023-07-28T09:30:05;0.32;;;0.32;;
9364;SDS011;4722;49.340;9.800;2023-07-28T09:32:32;1.05;;;0.35;;
9364;SDS011;4722;49.340;9.800;2023-07-28T09:35:07;0.85;;;0.52;;
9364;SDS011;4722;49.340;9.800;2023-07-28T09:37:42;1.10;;;0.52;;
9364;SDS011;4722;49.340;9.800;2023-07-28T09:40:13;1.25;;;0.68;;
9364;SDS011;4722;49.340;9.800;2023-07-28T09:42:42;1.58;;;0.75;;
9364;SDS011;4722;49.340;9.800;2023-07-28T09:45:10;4.20;;;0.52;;
9364;SDS011;4722;49.340;9.800;2023-07-28T09:47:37;3.45;;;0.55;;
9364;SDS011;4722;49.340;9.800;2023-07-28T09:50:04;7.72;;;0.65;;
9364;SDS011;4722;49.340;9.800;2023-07-28T09:52:35;0.90;;;0.50;;
9364;SDS011;4722;49.340;9.800;2023-07-28T09:55:05;1.52;;;0.68;;
9364;SDS011;4722;49.340;9.800;2023-07-28T09:57:37;3.55;;;0.68;;
9364;SDS011;4722;49.340;9.800;2023-07-28T10:00:06;1.77;;;0.60;;
9364;SDS011;4722;49.340;9.800;2023-07-28T10:02:34;1.02;;;0.63;;
9364;SDS011;4722;49.340;9.800;2023-07-28T10:05:01;0.73;;;0.40;;
9364;SDS011;4722;49.340;9.800;2023-07-28T10:07:28;0.70;;;0.40;;
9364;SDS011;4722;49.340;9.800;2023-07-28T10:09:54;2.15;;;0.60;;
9364;SDS011;4722;49.340;9.800;2023-07-28T10:12:24;1.40;;;0.43;;
9364;SDS011;4722;49.340;9.800;2023-07-28T10:15:02;1.60;;;0.40;;
9364;SDS011;4722;49.340;9.800;2023-07-28T10:17:33;0.85;;;0.30;;
9364;SDS011;4722;49.340;9.800;2023-07-28T10:20:01;1.48;;;0.52;;
9364;SDS011;4722;49.340;9.800;2023-07-28T10:22:32;0.43;;;0.20;;
9364;SDS011;4722;49.340;9.800;2023-07-28T10:25:01;1.35;;;0.60;;
9364;SDS011;4722;49.340;9.800;2023-07-28T10:30:53;1.45;;;0.30;;
9364;SDS011;4722;49.340;9.800;2023-07-28T10:33:29;0.93;;;0.35;;
9364;SDS011;4722;49.340;9.800;2023-07-28T10:39:00;1.33;;;0.75;;
9364;SDS011;4722;49.340;9.800;2023-07-28T10:41:28;0.70;;;0.40;;
9364;SDS011;4722;49.340;9.800;2023-07-28T10:43:54;0.82;;;0.30;;
9364;SDS011;4722;49.340;9.800;2023-07-28T10:46:20;0.40;;;0.30;;
9364;SDS011;4722;49.340;9.800;2023-07-28T10:48:47;0.73;;;0.30;;
9364;SDS011;4722;49.340;9.800;2023-07-28T10:51:32;0.82;;;0.35;;
9364;SDS011;4722;49.340;9.800;2023-07-28T10:53:58;0.77;;;0.52;;
9364;SDS011;4722;49.340;9.800;2023-07-28T10:56:25;1.67;;;0.60;;
9364;SDS011;4722;49.340;9.800;2023-07-28T10:59:04;1.65;;;0.40;;
9364;SDS011;4722;49.340;9.800;2023-07-28T11:01:34;1.30;;;0.50;;
9364;SDS011;4722;49.340;9.800;2023-07-28T11:04:17;1.02;;;0.50;;
9364;SDS011;4722;49.340;9.800;2023-07-28T11:06:44;1.15;;;0.60;;
9364;SDS011;4722;49.340;9.800;2023-07-28T11:09:14;0.98;;;0.40;;
9364;SDS011;4722;49.340;9.800;2023-07-28T11:11:42;1.30;;;0.60;;
9364;SDS011;4722;49.340;9.800;2023-07-28T11:14:08;6.18;;;0.85;;
9364;SDS011;4722;49.340;9.800;2023-07-28T11:16:40;0.93;;;0.40;;
9364;SDS011;4722;49.340;9.800;2023-07-28T11:19:09;0.68;;;0.40;;
9364;SDS011;4722;49.340;9.800;2023-07-28T11:21:39;1.00;;;0.32;;
9364;SDS011;4722;49.340;9.800;2023-07-28T11:24:06;2.33;;;0.60;;
9364;SDS011;4722;49.340;9.800;2023-07-28T11:26:36;0.63;;;0.38;;
9364;SDS011;4722;49.340;9.800;2023-07-28T11:29:03;9.63;;;0.90;;
9364;SDS011;4722;49.340;9.800;2023-07-28T11:31:29;1.33;;;0.55;;
9364;SDS011;4722;49.340;9.800;2023-07-28T11:33:55;1.13;;;0.40;;
9364;SDS011;4722;49.340;9.800;2023-07-28T11:36:22;1.25;;;0.40;;
9364;SDS011;4722;49.340;9.800;2023-07-28T11:38:53;1.95;;;1.00;;
9364;SDS011;4722;49.340;9.800;2023-07-28T11:41:20;1.15;;;0.65;;
9364;SDS011;4722;49.340;9.800;2023-07-28T11:43:47;3.90;;;0.68;;
9364;SDS011;4722;49.340;9.800;2023-07-28T11:51:56;0.93;;;0.50;;
9364;SDS011;4722;49.340;9.800;2023-07-28T11:54:24;1.55;;;0.63;;
9364;SDS011;4722;49.340;9.800;2023-07-28T11:56:54;0.40;;;0.30;;
9364;SDS011;4722;49.340;9.800;2023-07-28T11:59:21;1.23;;;0.60;;
9364;SDS011;4722;49.340;9.800;2023-07-28T12:01:51;1.80;;;0.50;;
9364;SDS011;4722;49.340;9.800;2023-07-28T12:12:11;1.08;;;0.55;;
9364;SDS011;4722;49.340;9.800;2023-07-28T12:14:37;0.85;;;0.38;;
9364;SDS011;4722;49.340;9.800;2023-07-28T12:19:42;1.27;;;0.40;;
9364;SDS011;4722;49.340;9.800;2023-07-28T12:22:39;0.95;;;0.50;;
9364;SDS011;4722;49.340;9.800;2023-07-28T12:25:06;0.50;;;0.32;;
9364;SDS011;4722;49.340;9.800;2023-07-28T12:27:31;0.63;;;0.30;;
9364;SDS011;4722;49.340;9.800;2023-07-28T12:29:57;1.35;;;0.60;;
9364;SDS011;4722;49.340;9.800;2023-07-28T12:32:23;0.52;;;0.30;;
9364;SDS011;4722;49.340;9.800;2023-07-28T12:34:49;1.02;;;0.52;;
9364;SDS011;4722;49.340;9.800;2023-07-28T12:37:15;1.33;;;0.57;;
9364;SDS011;4722;49.340;9.800;2023-07-28T12:39:41;2.10;;;0.50;;
9364;SDS011;4722;49.340;9.800;2023-07-28T12:42:09;0.93;;;0.57;;
9364;SDS011;4722;49.340;9.800;2023-07-28T12:44:36;1.95;;;0.52;;
9364;SDS011;4722;49.340;9.800;2023-07-28T12:47:02;1.45;;;0.50;;
9364;SDS011;4722;49.340;9.800;2023-07-28T12:49:29;2.60;;;0.52;;
9364;SDS011;4722;49.340;9.800;2023-07-28T12:51:58;1.15;;;0.50;;
9364;SDS011;4722;49.340;9.800;2023-07-28T12:54:24;0.77;;;0.30;;
9364;SDS011;4722;49.340;9.800;2023-07-28T12:56:50;2.45;;;0.45;;
9364;SDS011;4722;49.340;9.800;2023-07-28T12:59:16;1.75;;;0.43;;
9364;SDS011;4722;49.340;9.800;2023-07-28T13:01:42;3.67;;;0.40;;
9364;SDS011;4722;49.340;9.800;2023-07-28T13:04:08;1.08;;;0.55;;
9364;SDS011;4722;49.340;9.800;2023-07-28T13:06:34;1.17;;;0.43;;
9364;SDS011;4722;49.340;9.800;2023-07-28T13:09:01;0.70;;;0.50;;
9364;SDS011;4722;49.340;9.800;2023-07-28T13:11:28;0.68;;;0.22;;
9364;SDS011;4722;49.340;9.800;2023-07-28T13:13:54;0.98;;;0.20;;
9364;SDS011;4722;49.340;9.800;2023-07-28T13:16:19;1.10;;;0.40;;
9364;SDS011;4722;49.340;9.800;2023-07-28T13:18:46;0.98;;;0.45;;
9364;SDS011;4722;49.340;9.800;2023-07-28T13:21:13;0.32;;;0.10;;
9364;SDS011;4722;49.340;9.800;2023-07-28T13:23:39;0.22;;;0.10;;
9364;SDS011;4722;49.340;9.800;2023-07-28T13:26:05;0.28;;;0.20;;
9364;SDS011;4722;49.340;9.800;2023-07-28T13:28:31;0.10;;;0.10;;
9364;SDS011;4722;49.340;9.800;2023-07-28T13:30:57;1.50;;;0.30;;
9364;SDS011;4722;49.340;9.800;2023-07-28T13:33:23;0.68;;;0.20;;
9364;SDS011;4722;49.340;9.800;2023-07-28T13:35:50;0.10;;;0.10;;
9364;SDS011;4722;49.340;9.800;2023-07-28T13:38:16;1.55;;;0.20;;
9364;SDS011;4722;49.340;9.800;2023-07-28T13:40:41;1.00;;;0.32;;
9364;SDS011;4722;49.340;9.800;2023-07-28T13:43:07;1.73;;;0.30;;
9364;SDS011;4722;49.340;9.800;2023-07-28T13:45:33;0.93;;;0.22;;
9364;SDS011;4722;49.340;9.800;2023-07-28T13:47:59;0.50;;;0.25;;
9364;SDS011;4722;49.340;9.800;2023-07-28T13:50:24;3.70;;;0.45;;
9364;SDS011;4722;49.340;9.800;2023-07-28T13:52:51;0.70;;;0.40;;
9364;SDS011;4722;49.340;9.800;2023-07-28T13:55:16;0.68;;;0.30;;
9364;SDS011;4722;49.340;9.800;2023-07-28T13:57:42;1.63;;;0.40;;
9364;SDS011;4722;49.340;9.800;2023-07-28T14:00:08;0.60;;;0.22;;
9364;SDS011;4722;49.340;9.800;2023-07-28T14:02:35;1.27;;;0.45;;
9364;SDS011;4722;49.340;9.800;2023-07-28T14:05:01;0.50;;;0.30;;
9364;SDS011;4722;49.340;9.800;2023-07-28T14:07:27;0.65;;;0.30;;
9364;SDS011;4722;49.340;9.800;2023-07-28T14:09:53;0.63;;;0.30;;
9364;SDS011;4722;49.340;9.800;2023-07-28T14:12:18;1.35;;;0.38;;
9364;SDS011;4722;49.340;9.800;2023-07-28T14:14:44;0.52;;;0.17;;
9364;SDS011;4722;49.340;9.800;2023-07-28T14:17:10;0.85;;;0.50;;
9364;SDS011;4722;49.340;9.800;2023-07-28T14:19:37;1.63;;;0.75;;
9364;SDS011;4722;49.340;9.800;2023-07-28T14:22:08;0.98;;;0.40;;
9364;SDS011;4722;49.340;9.800;2023-07-28T14:24:34;0.82;;;0.40;;
9364;SDS011;4722;49.340;9.800;2023-07-28T14:27:02;1.15;;;0.52;;
9364;SDS011;4722;49.340;9.800;2023-07-28T14:29:29;0.77;;;0.45;;
9364;SDS011;4722;49.340;9.800;2023-07-28T14:31:55;7.88;;;0.60;;
9364;SDS011;4722;49.340;9.800;2023-07-28T14:34:24;2.17;;;0.55;;
9364;SDS011;4722;49.340;9.800;2023-07-28T14:36:50;3.78;;;0.45;;
9364;SDS011;4722;49.340;9.800;2023-07-28T14:39:19;0.70;;;0.40;;
9364;SDS011;4722;49.340;9.800;2023-07-28T14:41:44;2.00;;;0.68;;
9364;SDS011;4722;49.340;9.800;2023-07-28T14:44:10;1.23;;;0.47;;
9364;SDS011;4722;49.340;9.800;2023-07-28T14:46:36;2.53;;;1.00;;
9364;SDS011;4722;49.340;9.800;2023-07-28T14:49:02;0.75;;;0.40;;
9364;SDS011;4722;49.340;9.800;2023-07-28T14:51:28;0.85;;;0.32;;
9364;SDS011;4722;49.340;9.800;2023-07-28T14:53:54;1.42;;;0.52;;
9364;SDS011;4722;49.340;9.800;2023-07-28T14:56:20;1.58;;;0.52;;
9364;SDS011;4722;49.340;9.800;2023-07-28T14:58:49;2.10;;;0.70;;
9364;SDS011;4722;49.340;9.800;2023-07-28T15:01:16;1.80;;;0.50;;
9364;SDS011;4722;49.340;9.800;2023-07-28T15:03:43;1.38;;;0.57;;
9364;SDS011;4722;49.340;9.800;2023-07-28T15:06:09;1.48;;;0.57;;
9364;SDS011;4722;49.340;9.800;2023-07-28T15:08:35;2.00;;;0.50;;
9364;SDS011;4722;49.340;9.800;2023-07-28T15:11:01;1.48;;;0.80;;
9364;SDS011;4722;49.340;9.800;2023-07-28T15:13:27;0.95;;;0.50;;
9364;SDS011;4722;49.340;9.800;2023-07-28T15:15:53;1.45;;;0.40;;
9364;SDS011;4722;49.340;9.800;2023-07-28T15:18:19;3.28;;;0.73;;
9364;SDS011;4722;49.340;9.800;2023-07-28T15:20:45;1.13;;;0.38;;
9364;SDS011;4722;49.340;9.800;2023-07-28T15:23:11;0.95;;;0.57;;
9364;SDS011;4722;49.340;9.800;2023-07-28T15:25:37;1.63;;;0.63;;
9364;SDS011;4722;49.340;9.800;2023-07-28T15:28:08;2.13;;;0.60;;
9364;SDS011;4722;49.340;9.800;2023-07-28T15:30:37;2.42;;;0.80;;
9364;SDS011;4722;49.340;9.800;2023-07-28T15:33:03;1.48;;;0.85;;
9364;SDS011;4722;49.340;9.800;2023-07-28T15:35:29;1.73;;;0.60;;
9364;SDS011;4722;49.340;9.800;2023-07-28T15:37:55;1.02;;;0.50;;
9364;SDS011;4722;49.340;9.800;2023-07-28T15:40:21;1.42;;;0.57;;
9364;SDS011;4722;49.340;9.800;2023-07-28T15:42:47;4.30;;;0.98;;
9364;SDS011;4722;49.340;9.800;2023-07-28T15:45:13;2.20;;;0.50;;
9364;SDS011;4722;49.340;9.800;2023-07-28T15:47:39;1.92;;;0.75;;
9364;SDS011;4722;49.340;9.800;2023-07-28T15:50:05;1.33;;;0.60;;